Cedaredge, CO

09:28 PM MDT am 24. Oktober 2014 (GMT -0600)
Montrose Regional | Change Station
CLOSE
Current Station
Flughafen
Location: Montrose,
Höhe: 5758 ft
Wetterstationen in der Umgebung

Höhe 5758 ft 38.51 °N, 107.90 °W | Updated 35 minutes ago

Heiter
Heiter
52 °F
gefühlte 52 °F
N
9
Wind Wechselnd Wind aus Südost

Heute
Max. -- | schwach -- °F
--% Regenrisiko
Gestern
Max. -- | schwach -- °F
Precip. -- inch
7:30 AM 6:20 PM
Neumond, 2% visible
Druck 30.20 inch
Sichtweite 10.0 Meilen
Wolken Heiter
Taupunkt 34 °F
Feuchtigkeit 50%
Regen 0.00 inch
Schneehöhe 0 in , 0 in , 0 in
UV 0 von 12
Pollen 1.80 von 12
Luftqualität Nicht verfügbar..
Flu Activity Sporadic
METAR KMTJ 250253Z AUTO 14008KT 10SM CLR 11/01 A3031 RMK AO2 SLP227 T01110011 53013

More Conditions Fewer Conditions

Druck 30.20 inch
Sichtweite 10.0 Meilen
Wolken Heiter
Taupunkt 34 °F
Feuchtigkeit 50%
Regen 0.00 inch
Schneehöhe 0 in , 0 in , 0 in
UV 0 von 12
Pollen 1.80 von 12
Luftqualität Nicht verfügbar..
Flu Activity Sporadic
METAR KMTJ 250253Z AUTO 14008KT 10SM CLR 11/01 A3031 RMK AO2 SLP227 T01110011 53013

More Conditions Fewer Conditions

10-Day Weather Forecast

Almanac

Astronomie

Oct. 24, 2014 Aufgang Untergang
Genaue Zeit 07:30 MDT 18:20 MDT
Bürgerliche Dämmerung 07:03 MDT 18:47 MDT
Nautische Dämmerung 06:31 MDT 19:19 MDT
Astronomische Dämmerung 06:01 MDT 19:49 MDT
Mond 08:12 MDT (10/24) 19:03 MDT (10/24)
Länge des sichtbaren Lichts 11h 44m
Tageslänge
10h 50m
Tomorrow will be 2m 20s shorter.
Neumond, 2% of the Moon is Illuminated
Heute
Neumond
Okt 30
Erstes Viertel
Nov 6
Vollmond
Nov 14
Letztes Viertel
Nov 22
Neu

Heutige Rekorde

State Highs State Lows

Community

WunderPhotos

Upload Photos

1,764,769 Fotos hochgeladen!

Nearby

Schneehöhe

Station Depth Höhe
Park Reservoir 0 in 9960 ft
Mesa Lakes 0 in 10000 ft
Overland Reservoir 0 in 9880 ft
McClure Pass 1 in 9500 ft
Columbine Pass 1 in 9400 ft

Erdbebenaktivität

Stadt Distance Mag. Time & Date
No recent earthquake activity has been reported nearby.
Minimum magnitude displayed is 2.5.

küstennahe Wassertemperaturen

Ort Temperatur
Kein Stationsbericht

Wetterstationen in der Umgebung